Time;durP1;ratioP1;P1;durP2;ratioP2;P2;SDS_P1;SDS_P2;PMS_P1;PMS_P2;Temp;Humidity;BMP_temperature;BMP_pressure;BME280_temperature;BME280_humidity;BME280_pressure;Samples;Min_cycle;Max_cycle;Signal;HPM_P1;HPM_P2
2022/10/10 00:02:21;;;;;;;3.53;1.30;;;;;;;6.74;91.79;101239.06;5997941;28;19914;-65
2022/10/10 00:05:16;;;;;;;7.60;1.60;;;;;;;6.63;92.40;101226.66;5998975;28;20118;-65
2022/10/10 00:08:11;;;;;;;9.97;1.80;;;;;;;6.64;92.43;101230.94;5998980;28;20027;-66
2022/10/10 00:11:07;;;;;;;6.80;1.90;;;;;;;6.56;92.67;101220.09;5998240;28;20038;-65
2022/10/10 00:14:02;;;;;;;3.50;1.97;;;;;;;6.56;92.87;101225.38;5999540;28;20093;-65
2022/10/10 00:16:57;;;;;;;4.88;1.55;;;;;;;6.58;92.65;101218.19;5998945;28;20292;-65
2022/10/10 00:19:53;;;;;;;8.50;1.93;;;;;;;6.59;92.51;101209.34;5998314;28;20046;-66
2022/10/10 00:22:48;;;;;;;7.23;1.90;;;;;;;6.60;92.60;101197.88;5997521;28;20089;-66
2022/10/10 00:25:43;;;;;;;4.53;1.63;;;;;;;6.64;92.60;101222.19;5998844;28;20118;-66
2022/10/10 00:28:39;;;;;;;5.87;1.73;;;;;;;6.54;92.61;101207.06;6009195;28;20137;-66
2022/10/10 00:31:34;;;;;;;8.27;1.80;;;;;;;6.62;92.95;101226.75;6021445;28;20301;-66
2022/10/10 00:34:29;;;;;;;8.70;1.73;;;;;;;6.57;93.00;101209.47;6007011;28;20282;-66
2022/10/10 00:37:25;;;;;;;7.07;1.90;;;;;;;6.50;93.24;101204.72;5998820;28;20066;-66
2022/10/10 00:40:21;;;;;;;5.97;1.67;;;;;;;6.42;93.16;101207.06;5997990;28;20062;-66
2022/10/10 00:43:17;;;;;;;5.47;1.77;;;;;;;6.45;93.69;101212.97;5998885;28;20038;-66
2022/10/10 00:46:12;;;;;;;4.85;2.00;;;;;;;6.34;93.87;101189.16;5998269;28;20027;-66
2022/10/10 00:49:19;;;;;;;5.37;1.80;;;;;;;6.30;93.83;101187.72;5998762;28;20113;-66
2022/10/10 00:52:14;;;;;;;4.95;1.63;;;;;;;6.36;93.85;101204.88;5997939;28;20058;-66
2022/10/10 00:55:10;;;;;;;11.50;1.92;;;;;;;6.25;94.38;101170.53;5998532;28;20089;-66
2022/10/10 00:58:07;;;;;;;5.78;1.80;;;;;;;6.33;94.34;101191.91;5996717;28;20117;-66
2022/10/10 01:01:02;;;;;;;5.43;1.50;;;;;;;6.32;94.08;101169.16;5996666;28;20378;-66
2022/10/10 01:03:59;;;;;;;6.88;2.10;;;;;;;6.32;93.63;101179.69;5998312;28;20038;-65
2022/10/10 01:06:54;;;;;;;6.00;1.92;;;;;;;6.37;94.30;101182.84;5998079;28;20034;-65
2022/10/10 01:09:51;;;;;;;5.88;1.77;;;;;;;6.38;93.63;101181.91;5998747;28;20035;-66
2022/10/10 01:13:02;;;;;;;6.45;1.90;;;;;;;6.35;93.93;101190.00;5996894;28;20047;-65
2022/10/10 01:16:10;;;;;;;7.95;2.30;;;;;;;6.19;94.24;101177.06;6013845;28;20534;-66
2022/10/10 01:19:20;;;;;;;6.07;2.30;;;;;;;6.21;94.41;101187.50;6020451;28;20161;-65
2022/10/10 01:22:56;;;;;;;5.72;2.13;;;;;;;6.15;94.72;101167.69;6020899;28;20517;-66
2022/10/10 01:26:16;;;;;;;6.70;2.00;;;;;;;6.14;94.58;101165.19;5985981;28;20047;-66
2022/10/10 01:29:36;;;;;;;7.95;2.40;;;;;;;6.05;95.14;101171.06;5998776;28;20035;-66
2022/10/10 01:32:43;;;;;;;9.23;2.80;;;;;;;5.92;95.41;101163.19;6000824;28;20034;-66
2022/10/10 01:35:54;;;;;;;4.20;1.92;;;;;;;5.87;95.81;101147.69;6000812;28;20118;-67
2022/10/10 01:39:06;;;;;;;5.35;1.80;;;;;;;5.82;96.03;101160.28;6002439;28;20034;-67
2022/10/10 01:42:13;;;;;;;4.43;1.88;;;;;;;5.78;96.35;101153.56;6000075;28;20081;-67
2022/10/10 01:45:10;;;;;;;4.57;1.85;;;;;;;5.69;97.22;101148.94;6000661;28;20027;-67
2022/10/10 01:48:06;;;;;;;6.53;2.72;;;;;;;5.67;96.99;101145.56;6022009;28;20027;-67
2022/10/10 01:51:11;;;;;;;3.92;2.20;;;;;;;5.68;97.35;101157.75;6001250;28;20450;-66
2022/10/10 01:54:44;;;;;;;7.53;1.95;;;;;;;5.63;97.55;101149.34;6001059;28;20039;-67
2022/10/10 01:58:05;;;;;;;8.35;2.08;;;;;;;5.56;97.96;101141.97;5999340;28;20031;-67
2022/10/10 02:01:31;;;;;;;4.60;2.22;;;;;;;5.50;97.97;101137.13;6000812;28;20042;-67
2022/10/10 02:04:40;;;;;;;4.10;1.98;;;;;;;5.42;98.77;101124.50;6000160;28;20037;-67
2022/10/10 02:07:43;;;;;;;9.45;3.35;;;;;;;5.51;98.41;101139.66;5999939;28;20042;-67
2022/10/10 02:10:51;;;;;;;5.63;2.53;;;;;;;5.47;98.91;101113.66;6037227;28;20065;-67
2022/10/10 02:13:49;;;;;;;7.00;2.40;;;;;;;5.53;98.85;101127.25;6000022;28;20033;-67
2022/10/10 02:16:46;;;;;;;9.32;2.50;;;;;;;5.58;98.43;101125.13;6016165;28;20090;-67
2022/10/10 02:19:45;;;;;;;7.00;2.20;;;;;;;5.61;98.72;101124.94;6001077;28;20042;-67
2022/10/10 02:22:42;;;;;;;6.70;2.30;;;;;;;5.60;98.91;101117.16;5999544;28;20026;-67
2022/10/10 02:25:39;;;;;;;9.30;2.17;;;;;;;5.53;98.54;101100.94;5999587;28;20073;-67
2022/10/10 02:28:38;;;;;;;8.20;2.42;;;;;;;5.57;98.98;101107.66;6001369;28;20310;-67
2022/10/10 02:31:38;;;;;;;7.85;2.35;;;;;;;5.51;98.99;101105.47;5999276;28;20030;-67
2022/10/10 02:34:40;;;;;;;5.45;1.90;;;;;;;5.62;99.32;101110.84;6000345;28;20043;-67
2022/10/10 02:37:37;;;;;;;4.93;2.00;;;;;;;5.55;99.19;101095.56;6016275;28;20042;-67
2022/10/10 02:40:34;;;;;;;8.88;1.90;;;;;;;5.44;98.44;101091.03;6000012;28;20537;-67
2022/10/10 02:43:31;;;;;;;4.63;1.67;;;;;;;5.42;98.43;101106.06;6000491;28;20034;-67
2022/10/10 02:46:27;;;;;;;5.13;2.08;;;;;;;5.32;98.71;101097.13;6000369;28;20034;-67
2022/10/10 02:49:25;;;;;;;8.18;1.95;;;;;;;5.43;99.53;101099.88;6016758;28;20026;-67
2022/10/10 02:52:20;;;;;;;7.00;1.80;;;;;;;5.14;99.49;101103.59;5999908;28;20364;-67
2022/10/10 02:55:15;;;;;;;3.37;1.67;;;;;;;4.81;99.42;101107.50;6000179;28;20043;-67
2022/10/10 02:58:12;;;;;;;5.68;1.98;;;;;;;4.56;100.00;101104.78;6000262;28;20281;-67
2022/10/10 03:01:07;;;;;;;6.38;1.38;;;;;;;4.78;100.00;101086.69;5999684;28;20034;-67
2022/10/10 03:04:03;;;;;;;4.47;1.80;;;;;;;4.90;100.00;101097.34;6000436;28;20038;-67
2022/10/10 03:06:58;;;;;;;4.18;1.95;;;;;;;5.32;100.00;101097.13;6000080;28;20305;-67
2022/10/10 03:09:53;;;;;;;3.97;1.70;;;;;;;5.23;100.00;101092.47;6015463;28;20042;-67
2022/10/10 03:12:49;;;;;;;4.67;1.80;;;;;;;5.10;100.00;101084.59;6006957;28;20054;-67
2022/10/10 03:15:44;;;;;;;6.27;1.87;;;;;;;4.74;100.00;101077.34;5999898;28;20045;-67
2022/10/10 03:18:39;;;;;;;4.77;1.90;;;;;;;4.89;100.00;101095.66;6000203;28;20266;-67
2022/10/10 03:21:35;;;;;;;6.97;1.90;;;;;;;4.96;100.00;101100.41;5999339;28;20085;-67
2022/10/10 03:24:30;;;;;;;7.53;1.95;;;;;;;4.48;100.00;101072.94;5999340;28;20034;-67
2022/10/10 03:27:25;;;;;;;5.73;2.00;;;;;;;4.36;100.00;101060.59;6000310;28;20031;-67
2022/10/10 03:30:21;;;;;;;7.10;2.10;;;;;;;4.55;100.00;101068.97;5999014;28;20282;-67
2022/10/10 03:33:16;;;;;;;9.77;3.03;;;;;;;4.69;100.00;101081.19;5999544;28;20050;-67
2022/10/10 03:36:11;;;;;;;8.87;3.57;;;;;;;4.72;100.00;101086.25;5999595;28;20093;-66
2022/10/10 03:39:08;;;;;;;7.50;2.90;;;;;;;4.67;100.00;101070.78;5999118;28;20062;-66
2022/10/10 03:42:05;;;;;;;7.30;2.78;;;;;;;4.81;100.00;101078.59;5998904;28;20377;-66
2022/10/10 03:45:01;;;;;;;9.70;3.33;;;;;;;4.77;100.00;101079.75;5999201;28;20090;-67
2022/10/10 03:47:56;;;;;;;11.23;3.03;;;;;;;4.74;100.00;101072.09;5999706;28;20770;-67
2022/10/10 03:50:51;;;;;;;6.97;3.20;;;;;;;4.90;100.00;101073.69;5998975;28;20026;-67
2022/10/10 03:53:47;;;;;;;9.70;3.33;;;;;;;4.78;100.00;101060.41;5999029;28;20027;-66
2022/10/10 03:56:42;;;;;;;6.97;2.63;;;;;;;4.87;100.00;101063.38;5998960;28;20078;-67
2022/10/10 03:59:37;;;;;;;7.32;2.78;;;;;;;4.81;100.00;101048.84;5999215;28;20100;-66
2022/10/10 04:02:33;;;;;;;6.33;2.70;;;;;;;4.96;100.00;101063.63;5998659;28;20035;-66
2022/10/10 04:05:28;;;;;;;11.03;3.20;;;;;;;4.90;100.00;101050.03;5998786;28;20062;-67
2022/10/10 04:08:23;;;;;;;7.53;2.97;;;;;;;4.99;100.00;101046.81;6000769;28;20282;-67
2022/10/10 04:11:19;;;;;;;6.07;2.67;;;;;;;5.13;100.00;101059.88;6002835;28;20023;-67
2022/10/10 04:14:14;;;;;;;8.63;2.73;;;;;;;5.17;100.00;101042.94;5999060;28;20039;-67
2022/10/10 04:17:09;;;;;;;10.73;2.83;;;;;;;5.28;100.00;101027.28;5998907;28;20066;-67
2022/10/10 04:20:05;;;;;;;6.45;2.83;;;;;;;5.43;100.00;101057.81;5998402;28;20034;-67
2022/10/10 04:23:01;;;;;;;9.90;2.85;;;;;;;5.46;99.82;101035.72;5998590;28;20039;-67
2022/10/10 04:25:56;;;;;;;5.30;2.40;;;;;;;5.60;99.51;101044.31;5998954;28;20042;-67
2022/10/10 04:28:51;;;;;;;6.87;2.40;;;;;;;5.68;98.48;101035.91;5998482;28;20046;-67
2022/10/10 04:31:46;;;;;;;10.27;3.60;;;;;;;5.62;97.85;101021.41;5998362;28;20274;-67
2022/10/10 04:34:42;;;;;;;6.53;2.00;;;;;;;5.65;97.84;101042.25;5998771;28;20066;-67
2022/10/10 04:37:37;;;;;;;6.13;1.97;;;;;;;5.61;98.14;101038.13;5998809;28;20026;-67
2022/10/10 04:40:34;;;;;;;13.40;3.20;;;;;;;5.61;98.15;101024.97;5998231;28;20085;-67
2022/10/10 04:43:30;;;;;;;5.45;2.40;;;;;;;5.62;97.43;101039.81;5997493;28;20317;-67
2022/10/10 04:46:25;;;;;;;4.77;2.70;;;;;;;5.49;97.68;101031.06;5998791;28;20034;-67
2022/10/10 04:49:20;;;;;;;6.37;2.47;;;;;;;5.47;97.84;101025.06;5998581;28;20471;-67
2022/10/10 04:52:16;;;;;;;7.20;2.75;;;;;;;5.37;98.37;101010.88;5997346;28;20086;-67
2022/10/10 04:55:11;;;;;;;9.53;2.80;;;;;;;5.32;98.14;101023.53;5998721;28;20038;-67
2022/10/10 04:58:06;;;;;;;10.05;3.00;;;;;;;5.23;98.99;101018.88;5998632;28;20097;-67
2022/10/10 05:01:03;;;;;;;5.70;2.73;;;;;;;5.28;98.92;101016.78;5997902;28;20478;-67
2022/10/10 05:03:58;;;;;;;11.25;2.78;;;;;;;5.23;98.67;101013.63;5999522;28;20039;-67
2022/10/10 05:06:53;;;;;;;12.43;4.22;;;;;;;5.23;99.00;101006.59;6013180;28;20080;-67
2022/10/10 05:09:49;;;;;;;4.22;2.17;;;;;;;5.21;98.99;101011.09;6020016;28;20486;-67
2022/10/10 05:12:44;;;;;;;7.80;2.88;;;;;;;5.22;99.06;101004.03;6007766;28;20030;-67
2022/10/10 05:15:40;;;;;;;5.83;2.67;;;;;;;5.26;99.09;101016.03;6020284;28;20031;-67
2022/10/10 05:18:37;;;;;;;5.78;2.42;;;;;;;5.11;98.68;100998.69;6002687;28;20271;-67
2022/10/10 05:21:33;;;;;;;9.05;3.00;;;;;;;5.07;98.99;100986.69;6001832;28;20035;-67
2022/10/10 05:24:28;;;;;;;8.23;3.70;;;;;;;5.06;99.94;100999.00;6002806;28;20555;-67
2022/10/10 05:27:23;;;;;;;6.07;2.53;;;;;;;4.98;100.00;100979.44;6001933;28;20031;-67
2022/10/10 05:30:18;;;;;;;7.23;2.63;;;;;;;4.93;100.00;100978.91;6001047;28;20050;-67
2022/10/10 05:33:14;;;;;;;9.70;2.87;;;;;;;4.98;99.81;100977.66;5996726;28;21126;-67
2022/10/10 05:36:11;;;;;;;14.27;3.60;;;;;;;4.94;100.00;100970.94;5998723;28;20085;-67
2022/10/10 05:39:07;;;;;;;8.80;2.80;;;;;;;4.97;100.00;100960.22;6001624;28;20350;-67
2022/10/10 05:42:02;;;;;;;10.07;2.70;;;;;;;5.08;100.00;100968.19;6000625;28;20090;-67
2022/10/10 05:44:57;;;;;;;7.87;3.40;;;;;;;5.14;100.00;100966.91;6001607;28;20530;-66
2022/10/10 05:47:53;;;;;;;10.03;3.37;;;;;;;5.07;100.00;100949.91;6002502;28;20376;-67
2022/10/10 05:50:51;;;;;;;8.77;2.87;;;;;;;5.12;99.71;100950.44;6001854;28;20309;-67
2022/10/10 05:53:47;;;;;;;8.40;3.08;;;;;;;5.22;99.84;100980.38;6004031;28;20042;-67
2022/10/10 05:56:42;;;;;;;7.72;2.90;;;;;;;5.20;99.44;100966.50;6004259;28;20042;-66
2022/10/10 05:59:38;;;;;;;10.95;3.15;;;;;;;5.17;100.00;100962.31;6001592;28;20147;-67
2022/10/10 06:02:33;;;;;;;6.90;3.00;;;;;;;5.21;99.70;100965.56;6004963;28;20042;-66
2022/10/10 06:05:29;;;;;;;6.28;3.00;;;;;;;5.24;99.98;100962.75;6001340;28;20125;-67
2022/10/10 06:08:24;;;;;;;9.10;3.43;;;;;;;5.22;99.83;100956.72;6008851;28;20065;-67
2022/10/10 06:11:22;;;;;;;6.53;2.78;;;;;;;5.27;99.51;100963.34;6016441;28;20154;-67
2022/10/10 06:14:17;;;;;;;6.30;2.75;;;;;;;5.32;99.88;100970.94;6001360;28;20580;-67
2022/10/10 06:17:12;;;;;;;8.03;3.03;;;;;;;5.25;99.08;100956.50;5999578;28;20034;-67
2022/10/10 06:20:08;;;;;;;7.63;3.10;;;;;;;5.29;99.69;100971.16;6000652;28;20059;-67
2022/10/10 06:23:05;;;;;;;7.03;3.45;;;;;;;5.29;99.41;100976.41;6000829;28;20038;-67
2022/10/10 06:26:00;;;;;;;6.88;2.70;;;;;;;5.35;99.67;100968.09;6000731;28;20161;-67
2022/10/10 06:28:55;;;;;;;8.83;3.70;;;;;;;5.40;99.80;100948.41;6001395;28;20157;-68
2022/10/10 06:31:51;;;;;;;9.73;3.80;;;;;;;5.51;99.68;100958.19;5999548;28;20037;-67
2022/10/10 06:34:46;;;;;;;8.23;3.80;;;;;;;5.63;98.97;100952.03;6012462;28;20065;-67
2022/10/10 06:37:42;;;;;;;8.67;3.50;;;;;;;5.88;97.61;100965.16;6000680;28;20117;-66
2022/10/10 06:40:38;;;;;;;12.10;3.30;;;;;;;6.05;96.44;100963.97;5999812;28;20038;-67
2022/10/10 06:43:33;;;;;;;10.93;3.20;;;;;;;6.22;95.73;100960.09;6000963;28;20027;-66
2022/10/10 06:46:29;;;;;;;8.18;3.10;;;;;;;6.44;94.91;100968.13;5999847;28;20077;-66
2022/10/10 06:49:24;;;;;;;6.80;3.00;;;;;;;6.52;93.74;100969.19;6000255;28;20482;-66
2022/10/10 06:52:19;;;;;;;6.55;2.67;;;;;;;6.65;93.02;100966.50;6012898;28;20290;-66
2022/10/10 06:55:15;;;;;;;7.70;2.67;;;;;;;6.90;92.81;100971.59;6000740;28;20497;-67
2022/10/10 06:58:10;;;;;;;8.80;2.90;;;;;;;7.07;91.68;100968.53;6002322;28;20070;-67
2022/10/10 07:01:05;;;;;;;12.20;3.03;;;;;;;7.27;90.61;100958.25;5998864;28;20290;-67
2022/10/10 07:04:01;;;;;;;7.30;3.33;;;;;;;7.48;89.59;100967.97;6000756;28;20113;-67
2022/10/10 07:06:56;;;;;;;5.80;2.77;;;;;;;7.63;88.81;100955.38;5999755;28;20281;-67
2022/10/10 07:09:51;;;;;;;15.05;3.38;;;;;;;7.89;87.29;100954.13;6003902;28;20121;-67
2022/10/10 07:12:47;;;;;;;6.00;2.43;;;;;;;8.31;85.73;100957.78;6011791;28;20033;-67
2022/10/10 07:15:42;;;;;;;6.73;3.27;;;;;;;8.55;84.00;100954.91;5999615;28;20027;-66
2022/10/10 07:18:37;;;;;;;7.05;2.95;;;;;;;8.81;83.00;100945.63;6008784;28;20022;-66
2022/10/10 07:21:33;;;;;;;7.20;2.80;;;;;;;9.13;81.73;100951.66;6011451;28;20031;-67
2022/10/10 07:24:28;;;;;;;8.47;2.77;;;;;;;9.45;80.08;100957.72;5997310;28;20281;-67
2022/10/10 07:27:23;;;;;;;9.33;4.00;;;;;;;9.57;79.56;100940.75;5997512;28;20035;-67
2022/10/10 07:30:19;;;;;;;9.93;3.77;;;;;;;10.02;77.88;100958.84;5996271;28;20035;-67
2022/10/10 07:33:14;;;;;;;12.27;3.78;;;;;;;10.07;76.35;100946.03;6004290;28;20672;-67
2022/10/10 07:36:09;;;;;;;9.37;3.23;;;;;;;10.12;76.13;100957.94;6003216;28;20534;-66
2022/10/10 07:39:05;;;;;;;12.98;2.90;;;;;;;10.15;76.13;100951.53;6014167;28;20319;-67
2022/10/10 07:42:00;;;;;;;5.78;2.35;;;;;;;10.44;75.53;100960.31;6005665;28;20613;-67
2022/10/10 07:44:56;;;;;;;4.80;1.80;;;;;;;10.75;74.87;100951.25;5999382;28;20041;-67
2022/10/10 07:47:51;;;;;;;6.93;1.93;;;;;;;10.79;73.79;100957.09;6006790;28;20144;-67
2022/10/10 07:50:47;;;;;;;6.15;2.00;;;;;;;11.00;73.37;100964.91;6001779;28;20057;-67
2022/10/10 07:53:43;;;;;;;6.10;1.87;;;;;;;10.87;73.31;100951.09;5998745;28;20058;-67
2022/10/10 07:56:38;;;;;;;7.45;2.30;;;;;;;11.01;73.84;100945.34;5999506;28;20520;-67
2022/10/10 07:59:33;;;;;;;5.80;2.50;;;;;;;11.34;73.46;100947.47;5998647;28;20101;-67
2022/10/10 08:02:28;;;;;;;6.33;2.50;;;;;;;11.38;73.45;100943.56;6000450;28;20469;-67
2022/10/10 08:05:24;;;;;;;5.07;1.97;;;;;;;11.81;72.32;100951.78;5998756;28;20447;-67
2022/10/10 08:08:19;;;;;;;7.03;1.90;;;;;;;12.01;71.70;100922.44;6002174;28;20030;-67
2022/10/10 08:11:14;;;;;;;7.03;2.20;;;;;;;12.38;71.03;100937.28;6006076;28;20066;-67
2022/10/10 08:14:10;;;;;;;4.50;2.13;;;;;;;12.31;71.48;100935.38;5998952;28;20069;-67
2022/10/10 08:17:06;;;;;;;6.33;1.90;;;;;;;12.33;70.99;100928.06;6006675;28;20044;-67
2022/10/10 08:20:01;;;;;;;5.25;1.73;;;;;;;12.60;71.16;100925.34;6009976;28;20026;-67
2022/10/10 08:22:57;;;;;;;5.30;1.52;;;;;;;12.97;69.83;100920.59;5998458;28;20031;-68
2022/10/10 08:25:53;;;;;;;3.65;1.50;;;;;;;13.33;68.53;100921.38;5998881;28;20089;-67
2022/10/10 08:28:48;;;;;;;3.58;1.60;;;;;;;13.41;66.94;100910.75;5998574;28;20035;-67
2022/10/10 08:31:43;;;;;;;6.20;1.20;;;;;;;13.31;68.33;100928.69;5997715;28;20509;-67
2022/10/10 08:34:39;;;;;;;4.40;1.50;;;;;;;13.57;67.23;100925.97;5998587;28;20022;-68
2022/10/10 08:37:34;;;;;;;3.37;1.50;;;;;;;13.40;67.22;100921.56;5998758;28;20047;-67
2022/10/10 08:40:30;;;;;;;3.87;1.30;;;;;;;13.50;66.46;100912.47;6000372;28;20066;-67
2022/10/10 08:43:40;;;;;;;3.33;1.42;;;;;;;13.47;67.25;100911.94;6001663;28;20041;-67
2022/10/10 08:46:40;;;;;;;3.08;1.55;;;;;;;13.82;66.22;100909.06;6001835;28;20114;-68
2022/10/10 08:49:38;;;;;;;4.90;1.55;;;;;;;13.99;65.65;100913.47;6000221;28;20081;-66
2022/10/10 08:52:56;;;;;;;6.65;1.50;;;;;;;14.23;64.46;100918.84;6001649;28;20077;-66
2022/10/10 08:55:52;;;;;;;4.88;1.63;;;;;;;14.19;64.67;100897.97;5974079;28;20401;-66
2022/10/10 08:58:54;;;;;;;3.90;1.60;;;;;;;14.15;65.13;100912.66;6011477;28;20039;-66
2022/10/10 09:01:51;;;;;;;4.30;1.42;;;;;;;14.43;64.09;100913.22;6010601;28;20078;-66
2022/10/10 09:04:46;;;;;;;3.97;1.80;;;;;;;14.29;64.10;100898.69;6000941;28;20426;-67
2022/10/10 09:08:00;;;;;;;4.27;1.63;;;;;;;14.49;64.04;100901.88;6003064;28;20089;-67
2022/10/10 09:11:03;;;;;;;2.13;1.20;;;;;;;14.48;64.95;100898.38;6011467;28;20359;-67
2022/10/10 09:14:13;;;;;;;4.82;1.60;;;;;;;14.59;63.08;100899.88;6002436;28;20031;-67
2022/10/10 09:17:16;;;;;;;3.20;1.10;;;;;;;14.62;63.57;100899.56;6001616;28;20085;-66
2022/10/10 09:21:06;;;;;;;8.02;1.55;;;;;;;14.81;63.08;100905.34;6001246;28;20037;-66
2022/10/10 09:24:03;;;;;;;5.28;1.63;;;;;;;14.85;62.45;100904.03;5952114;29;20047;-66
2022/10/10 09:27:03;;;;;;;4.70;1.40;;;;;;;14.88;63.84;100886.84;5999837;28;20446;-66
2022/10/10 09:30:06;;;;;;;4.50;1.70;;;;;;;15.38;63.46;100892.69;6000379;28;20066;-66
2022/10/10 09:33:09;;;;;;;3.90;1.60;;;;;;;15.61;62.28;100890.13;6001305;28;20039;-67
2022/10/10 09:36:09;;;;;;;3.75;1.50;;;;;;;15.66;60.77;100881.59;6003122;28;20047;-66
2022/10/10 09:39:35;;;;;;;6.60;1.92;;;;;;;15.92;60.31;100871.44;5999786;28;20034;-66
2022/10/10 09:42:34;;;;;;;2.90;1.45;;;;;;;15.89;61.34;100874.47;5999100;28;20033;-66
2022/10/10 09:45:33;;;;;;;3.95;1.60;;;;;;;16.16;60.45;100855.22;6000695;28;20035;-66
2022/10/10 09:48:41;;;;;;;6.53;1.50;;;;;;;16.16;60.00;100865.91;5999934;28;20039;-66
2022/10/10 09:51:37;;;;;;;4.70;1.60;;;;;;;16.24;60.41;100852.47;5995782;28;20430;-66
2022/10/10 09:54:32;;;;;;;4.70;1.70;;;;;;;15.63;60.46;100849.84;6000537;28;20086;-69
2022/10/10 09:57:33;;;;;;;10.38;1.75;;;;;;;16.06;60.35;100859.97;5999494;28;20067;-68
2022/10/10 10:00:37;;;;;;;2.38;1.40;;;;;;;16.07;60.29;100842.91;6003862;28;20114;-66
2022/10/10 10:03:32;;;;;;;5.18;1.83;;;;;;;16.36;60.15;100847.53;6001399;28;20042;-66
2022/10/10 10:06:29;;;;;;;3.27;1.80;;;;;;;16.35;59.14;100846.69;6002028;28;20062;-66
2022/10/10 10:09:24;;;;;;;3.13;1.35;;;;;;;16.23;59.65;100872.22;6014043;28;20074;-67
2022/10/10 10:12:23;;;;;;;6.53;1.70;;;;;;;16.39;59.49;100861.38;6003126;28;20039;-68
2022/10/10 10:15:23;;;;;;;4.88;1.65;;;;;;;16.51;60.66;100881.38;6016164;28;20049;-67
2022/10/10 10:18:26;;;;;;;5.78;1.75;;;;;;;16.35;60.09;100869.94;6007137;28;20034;-68
2022/10/10 10:21:22;;;;;;;4.45;1.73;;;;;;;16.39;60.98;100872.06;6000478;28;20423;-67
2022/10/10 10:24:21;;;;;;;4.03;1.45;;;;;;;16.49;59.28;100861.13;6001110;28;20371;-67
2022/10/10 10:27:19;;;;;;;6.97;4.20;;;;;;;16.54;60.08;100864.97;6001104;28;20074;-68
2022/10/10 10:30:24;;;;;;;4.90;1.70;;;;;;;17.08;59.72;100859.41;6000137;28;20140;-67
2022/10/10 10:33:35;;;;;;;3.25;1.40;;;;;;;17.11;59.09;100867.06;6013120;28;20070;-68
2022/10/10 10:36:30;;;;;;;4.15;1.60;;;;;;;17.32;58.29;100863.66;6000749;28;20038;-67
2022/10/10 10:39:38;;;;;;;4.23;1.90;;;;;;;17.11;58.51;100864.41;6009876;28;20066;-67
2022/10/10 10:42:41;;;;;;;4.03;2.03;;;;;;;16.88;59.47;100855.59;5998909;28;20058;-67
2022/10/10 10:45:43;;;;;;;5.45;1.45;;;;;;;16.79;59.02;100867.41;6000138;28;20045;-68
2022/10/10 10:48:45;;;;;;;5.43;1.80;;;;;;;16.89;57.73;100873.34;5999233;28;20066;-68
2022/10/10 10:51:50;;;;;;;8.75;1.52;;;;;;;16.81;58.54;100860.88;5999794;28;20470;-67
2022/10/10 10:55:23;;;;;;;5.60;1.77;;;;;;;16.81;59.10;100860.03;5998923;28;20043;-67
2022/10/10 10:58:40;;;;;;;4.25;1.50;;;;;;;17.05;58.85;100857.09;5991244;28;20463;-67
2022/10/10 11:01:43;;;;;;;4.05;1.70;;;;;;;17.05;58.40;100857.09;6004067;28;20042;-68
2022/10/10 11:04:51;;;;;;;4.35;1.60;;;;;;;17.07;58.46;100857.72;5998213;28;20045;-67
2022/10/10 11:08:09;;;;;;;4.45;1.73;;;;;;;17.12;57.45;100848.13;5996967;28;20097;-68
2022/10/10 11:11:42;;;;;;;4.78;1.60;;;;;;;17.33;57.31;100852.75;6007762;28;20035;-68
2022/10/10 11:14:49;;;;;;;3.88;1.60;;;;;;;17.40;57.80;100842.09;5990815;28;20064;-68
2022/10/10 11:17:55;;;;;;;4.70;1.65;;;;;;;17.24;57.44;100846.66;6012698;28;20042;-67
2022/10/10 11:21:14;;;;;;;5.97;1.67;;;;;;;17.35;57.00;100834.63;6003194;28;20084;-68
2022/10/10 11:24:14;;;;;;;5.13;1.70;;;;;;;17.27;57.55;100840.09;6004153;28;20038;-68
2022/10/10 11:27:18;;;;;;;3.10;1.48;;;;;;;17.36;57.46;100849.69;5987085;28;20066;-68
2022/10/10 11:30:16;;;;;;;4.95;1.75;;;;;;;17.51;57.78;100847.81;6001005;28;20053;-68
2022/10/10 11:33:15;;;;;;;5.38;1.73;;;;;;;17.65;55.80;100848.84;6011330;28;20031;-68
2022/10/10 11:36:15;;;;;;;3.60;1.50;;;;;;;17.69;55.45;100850.13;5996926;28;20033;-67
2022/10/10 11:39:19;;;;;;;4.00;1.70;;;;;;;17.54;56.33;100842.13;6013641;28;20031;-68
2022/10/10 11:42:21;;;;;;;4.00;1.70;;;;;;;17.58;56.36;100837.22;5996927;28;20077;-68
2022/10/10 11:45:29;;;;;;;4.78;1.42;;;;;;;17.79;56.44;100830.03;6014933;28;20039;-68
2022/10/10 11:48:33;;;;;;;3.80;1.83;;;;;;;17.71;56.10;100816.75;5999408;28;20051;-67
2022/10/10 11:52:16;;;;;;;4.50;1.50;;;;;;;17.88;55.37;100837.97;5996922;28;20363;-67
2022/10/10 11:55:25;;;;;;;6.75;2.13;;;;;;;17.71;55.60;100832.00;5997081;28;20154;-67
2022/10/10 11:58:36;;;;;;;4.50;1.67;;;;;;;18.01;56.91;100841.63;5998896;28;20495;-67
2022/10/10 12:01:36;;;;;;;4.85;1.55;;;;;;;17.95;55.53;100828.97;6004503;28;20553;-67
2022/10/10 12:04:36;;;;;;;3.00;1.50;;;;;;;17.98;55.60;100827.75;5997297;28;20499;-67
2022/10/10 12:07:34;;;;;;;;;;;;;;;18.18;55.89;100836.84;5997928;28;20030;-67
2022/10/10 12:10:30;;;;;;;3.42;1.58;;;;;;;18.10;55.44;100824.34;5997113;28;19918;-67
2022/10/10 12:13:33;;;;;;;3.55;1.90;;;;;;;18.18;55.14;100834.94;5996859;28;20093;-67
2022/10/10 12:16:30;;;;;;;3.03;1.35;;;;;;;18.15;56.14;100834.53;5997888;28;20110;-67
2022/10/10 12:19:26;;;;;;;4.50;1.90;;;;;;;18.11;56.60;100830.56;5997161;28;20117;-67
2022/10/10 12:22:27;;;;;;;2.90;1.35;;;;;;;18.36;56.01;100827.28;6018486;28;20390;-67
2022/10/10 12:25:41;;;;;;;3.83;1.80;;;;;;;18.50;55.32;100825.56;5997266;28;20036;-67
2022/10/10 12:28:59;;;;;;;4.18;1.40;;;;;;;18.33;55.27;100826.84;5998438;28;20062;-67
2022/10/10 12:32:29;;;;;;;4.10;1.55;;;;;;;18.37;54.92;100828.13;5997443;28;20562;-67
2022/10/10 12:35:40;;;;;;;4.32;1.40;;;;;;;18.29;55.21;100820.22;5986237;28;20121;-67
2022/10/10 12:38:35;;;;;;;7.72;1.80;;;;;;;18.52;55.40;100814.63;5997980;28;20035;-67
2022/10/10 12:41:39;;;;;;;5.23;1.70;;;;;;;18.81;55.50;100815.25;5998277;28;20039;-67
2022/10/10 12:44:41;;;;;;;4.88;1.80;;;;;;;18.82;56.25;100811.53;5997703;28;20113;-67
2022/10/10 12:47:44;;;;;;;7.30;1.75;;;;;;;18.89;55.51;100809.72;5998389;28;20038;-67
2022/10/10 12:50:40;;;;;;;10.80;2.15;;;;;;;18.56;55.71;100816.75;6003911;28;20046;-67
2022/10/10 12:53:36;;;;;;;6.57;1.70;;;;;;;18.48;55.66;100798.06;5996919;28;20082;-67
2022/10/10 12:56:41;;;;;;;8.20;1.90;;;;;;;18.50;55.01;100804.09;5998422;28;20035;-67
2022/10/10 12:59:37;;;;;;;4.20;1.52;;;;;;;18.64;55.16;100802.31;5998057;28;20685;-68
2022/10/10 13:02:33;;;;;;;7.95;1.70;;;;;;;18.36;55.79;100815.72;5996771;28;20035;-67
2022/10/10 13:05:32;;;;;;;5.25;1.65;;;;;;;18.30;56.14;100814.63;5997528;28;20538;-67
2022/10/10 13:08:29;;;;;;;5.90;1.67;;;;;;;18.36;57.45;100815.72;5997435;28;20065;-68
2022/10/10 13:11:24;;;;;;;11.45;2.53;;;;;;;18.32;57.41;100803.69;5996950;28;20080;-67
2022/10/10 13:14:19;;;;;;;6.37;1.50;;;;;;;18.49;57.41;100802.41;5997593;28;20034;-67
2022/10/10 13:17:24;;;;;;;10.73;2.25;;;;;;;18.50;55.97;100816.69;5997166;28;20042;-68
2022/10/10 13:20:34;;;;;;;8.93;1.75;;;;;;;18.35;57.25;100795.25;6009911;28;20046;-68
2022/10/10 13:23:30;;;;;;;4.78;1.65;;;;;;;18.21;56.27;100801.53;6004836;28;20088;-67
2022/10/10 13:26:29;;;;;;;6.88;1.92;;;;;;;18.18;56.36;100808.09;6008125;28;20537;-68
2022/10/10 13:29:35;;;;;;;10.13;1.98;;;;;;;17.91;56.70;100811.56;6000839;28;20034;-67
2022/10/10 13:32:32;;;;;;;8.85;2.10;;;;;;;17.88;56.79;100825.38;6016163;28;20038;-68
2022/10/10 13:35:28;;;;;;;5.00;1.83;;;;;;;17.97;57.23;100831.44;6012701;28;20039;-67
2022/10/10 13:38:24;;;;;;;3.67;1.60;;;;;;;17.89;57.22;100815.47;6007127;28;20121;-67
2022/10/10 13:41:21;;;;;;;7.10;2.30;;;;;;;17.81;57.14;100806.53;6015850;28;20030;-67
2022/10/10 13:44:28;;;;;;;5.82;1.88;;;;;;;17.92;58.01;100817.75;5999855;28;20603;-67
2022/10/10 13:47:49;;;;;;;7.72;2.10;;;;;;;17.78;57.49;100811.44;6000217;28;20117;-68
2022/10/10 13:50:44;;;;;;;5.05;1.90;;;;;;;17.72;58.06;100807.66;6000950;28;20039;-68
2022/10/10 13:53:45;;;;;;;8.17;1.90;;;;;;;17.72;59.02;100810.34;6000912;28;20057;-67
2022/10/10 13:56:40;;;;;;;4.63;2.00;;;;;;;17.59;58.61;100804.81;6001992;28;20471;-67
2022/10/10 13:59:35;;;;;;;4.30;1.87;;;;;;;17.54;59.55;100812.63;6002009;28;20053;-68
2022/10/10 14:02:32;;;;;;;6.90;2.00;;;;;;;17.57;60.13;100816.78;6016981;28;20266;-68